createdAt,value
2019-05-15T00:00:10.281Z,11.60
2019-05-15T00:02:38.999Z,11.60
2019-05-15T00:05:08.963Z,11.50
2019-05-15T00:07:39.260Z,11.50
2019-05-15T00:10:08.928Z,11.50
2019-05-15T00:12:39.515Z,11.50
2019-05-15T00:15:09.400Z,11.50
2019-05-15T00:17:39.318Z,11.50
2019-05-15T00:20:09.993Z,11.50
2019-05-15T00:22:39.047Z,11.40
2019-05-15T00:25:09.341Z,11.40
2019-05-15T00:27:38.791Z,11.40
2019-05-15T00:30:09.759Z,11.40
2019-05-15T00:32:39.273Z,11.40
2019-05-15T00:35:09.366Z,11.30
2019-05-15T00:37:38.961Z,11.30
2019-05-15T00:40:08.741Z,11.30
2019-05-15T00:42:38.354Z,11.30
2019-05-15T00:45:09.390Z,11.20
2019-05-15T00:47:39.739Z,11.20
2019-05-15T00:50:09.724Z,11.20
2019-05-15T00:52:39.461Z,11.20
2019-05-15T00:55:08.811Z,11.20
2019-05-15T00:57:39.267Z,11.10
2019-05-15T01:00:08.834Z,11.10
2019-05-15T01:02:38.911Z,11.10
2019-05-15T01:05:08.384Z,11.10
2019-05-15T01:07:39.235Z,11.00
2019-05-15T01:10:11.110Z,11.10
2019-05-15T01:12:39.601Z,11.10
2019-05-15T01:15:09.435Z,11.10
2019-05-15T01:17:39.122Z,11.10
2019-05-15T01:20:11.286Z,11.10
2019-05-15T01:22:39.755Z,11.10
2019-05-15T01:25:08.778Z,11.10
2019-05-15T01:27:38.707Z,11.10
2019-05-15T01:30:08.979Z,11.10
2019-05-15T01:32:39.642Z,11.00
2019-05-15T01:35:09.465Z,11.10
2019-05-15T01:37:38.990Z,11.00
2019-05-15T01:40:08.810Z,11.00
2019-05-15T01:42:38.556Z,11.00
2019-05-15T01:45:08.630Z,11.00
2019-05-15T01:47:38.818Z,11.00
2019-05-15T01:50:09.345Z,10.90
2019-05-15T01:52:38.952Z,10.90
2019-05-15T01:55:09.257Z,10.90
2019-05-15T01:57:38.586Z,10.90
2019-05-15T02:00:09.259Z,10.90
2019-05-15T02:02:38.907Z,10.90
2019-05-15T02:05:09.025Z,10.90
2019-05-15T02:07:39.219Z,10.80
2019-05-15T02:10:09.366Z,10.80
2019-05-15T02:12:39.104Z,10.70
2019-05-15T02:15:08.845Z,10.70
2019-05-15T02:17:39.315Z,10.70
2019-05-15T02:20:08.853Z,10.70
2019-05-15T02:22:41.926Z,10.60
2019-05-15T02:25:09.366Z,10.60
2019-05-15T02:27:39.386Z,10.60
2019-05-15T02:30:22.332Z,10.60
2019-05-15T02:32:39.860Z,10.60
2019-05-15T02:35:09.971Z,10.60
2019-05-15T02:37:40.795Z,10.50
2019-05-15T02:40:11.059Z,10.50
2019-05-15T02:42:40.388Z,10.40
2019-05-15T02:45:10.776Z,10.50
2019-05-15T02:47:40.017Z,10.40
2019-05-15T02:50:11.071Z,10.40
2019-05-15T02:52:44.806Z,10.40
2019-05-15T02:55:10.262Z,10.40
2019-05-15T02:57:39.636Z,10.30
2019-05-15T03:00:10.922Z,10.30
2019-05-15T03:02:41.444Z,10.30
2019-05-15T03:05:13.378Z,10.30
2019-05-15T03:07:41.930Z,10.20
2019-05-15T03:10:10.897Z,10.20
2019-05-15T03:12:40.683Z,10.20
2019-05-15T03:15:10.183Z,10.10
2019-05-15T03:17:40.764Z,10.10
2019-05-15T03:20:11.267Z,10.10
2019-05-15T03:22:40.721Z,10.10
2019-05-15T03:25:10.896Z,10.10
2019-05-15T03:27:40.093Z,10.00
2019-05-15T03:30:13.756Z,10.00
2019-05-15T03:32:52.258Z,10.00
2019-05-15T03:35:14.951Z,9.90
2019-05-15T03:37:41.713Z,9.90
2019-05-15T03:40:10.965Z,9.90
2019-05-15T03:42:40.093Z,9.90
2019-05-15T03:45:10.115Z,9.90
2019-05-15T03:47:40.227Z,9.80
2019-05-15T03:50:10.245Z,9.80
2019-05-15T03:52:39.621Z,9.80
2019-05-15T03:55:11.564Z,9.80
2019-05-15T03:57:40.551Z,9.80
2019-05-15T04:00:10.171Z,9.70
2019-05-15T04:02:39.689Z,9.70
2019-05-15T04:05:11.921Z,9.70
2019-05-15T04:07:39.846Z,9.60
2019-05-15T04:10:10.074Z,9.60
2019-05-15T04:12:40.292Z,9.60
2019-05-15T04:15:10.784Z,9.60
2019-05-15T04:17:40.419Z,9.50
2019-05-15T04:20:10.289Z,9.50
2019-05-15T04:22:40.034Z,9.50
2019-05-15T04:25:10.315Z,9.50
2019-05-15T04:27:42.050Z,9.40
2019-05-15T04:30:13.938Z,9.40
2019-05-15T04:32:42.494Z,9.40
2019-05-15T04:35:11.317Z,9.40
2019-05-15T04:37:41.068Z,9.40
2019-05-15T04:40:22.467Z,9.40
2019-05-15T04:42:43.693Z,9.40
2019-05-15T04:45:12.293Z,9.40
2019-05-15T04:47:40.736Z,9.40
2019-05-15T04:50:09.796Z,9.40
2019-05-15T04:52:39.436Z,9.40
2019-05-15T04:55:10.111Z,9.40
2019-05-15T04:57:41.117Z,9.40
2019-05-15T05:00:10.568Z,9.40
2019-05-15T05:02:40.461Z,9.50
2019-05-15T05:05:10.331Z,9.50
2019-05-15T05:07:39.624Z,9.50
2019-05-15T05:10:09.938Z,9.50
2019-05-15T05:12:41.859Z,9.50
2019-05-15T05:15:12.649Z,9.60
2019-05-15T05:17:41.178Z,9.50
2019-05-15T05:20:09.713Z,9.60
2019-05-15T05:22:39.260Z,9.60
2019-05-15T05:25:08.476Z,9.60
2019-05-15T05:27:38.427Z,9.60
2019-05-15T05:30:08.389Z,9.60
2019-05-15T05:32:39.059Z,9.60
2019-05-15T05:35:09.473Z,9.60
2019-05-15T05:37:38.913Z,9.60
2019-05-15T05:40:08.750Z,9.60
2019-05-15T05:42:38.921Z,9.70
2019-05-15T05:45:09.291Z,9.70
2019-05-15T05:47:38.470Z,9.70
2019-05-15T05:50:08.249Z,9.80
2019-05-15T05:52:39.152Z,9.80
2019-05-15T05:55:08.873Z,9.70
2019-05-15T05:57:38.357Z,9.80
2019-05-15T06:00:09.490Z,9.80
2019-05-15T06:02:47.383Z,9.70
2019-05-15T06:05:08.489Z,9.70
2019-05-15T06:07:38.794Z,9.70
2019-05-15T06:10:08.820Z,9.70
2019-05-15T06:12:38.867Z,9.70
2019-05-15T06:15:09.207Z,9.80
2019-05-15T06:17:39.241Z,9.80
2019-05-15T06:20:08.373Z,9.80
2019-05-15T06:22:38.781Z,9.80
2019-05-15T06:25:10.759Z,9.80
2019-05-15T06:27:39.019Z,9.70
2019-05-15T06:30:08.841Z,9.80
2019-05-15T06:32:39.854Z,9.80
2019-05-15T06:35:08.869Z,9.80
2019-05-15T06:37:39.690Z,9.80
2019-05-15T06:40:08.600Z,9.80
2019-05-15T06:42:39.402Z,9.80
2019-05-15T06:45:08.620Z,9.80
2019-05-15T06:47:39.221Z,9.90
2019-05-15T06:50:08.561Z,9.90
2019-05-15T06:52:38.015Z,9.90
2019-05-15T06:55:10.088Z,9.90
2019-05-15T06:57:39.819Z,9.90
2019-05-15T07:00:08.545Z,10.00
2019-05-15T07:02:38.194Z,10.00
2019-05-15T07:05:08.020Z,10.00
2019-05-15T07:07:38.705Z,10.10
2019-05-15T07:10:09.135Z,10.00
2019-05-15T07:12:39.136Z,9.90
2019-05-15T07:15:09.068Z,10.00
2019-05-15T07:17:39.236Z,10.00
2019-05-15T07:20:10.001Z,10.00
2019-05-15T07:22:39.221Z,10.00
2019-05-15T07:25:12.627Z,10.00
2019-05-15T07:27:42.854Z,10.00
2019-05-15T07:30:12.421Z,10.00
2019-05-15T07:32:41.080Z,10.00
2019-05-15T07:35:11.117Z,10.10
2019-05-15T07:37:39.578Z,10.10
2019-05-15T07:40:12.322Z,10.20
2019-05-15T07:42:40.848Z,10.20
2019-05-15T07:45:10.232Z,10.30
2019-05-15T07:47:38.979Z,10.30
2019-05-15T07:50:09.302Z,10.30
2019-05-15T07:52:39.597Z,10.40
2019-05-15T07:55:10.538Z,10.40
2019-05-15T07:57:39.765Z,10.40
2019-05-15T08:00:18.775Z,10.40
2019-05-15T08:02:48.134Z,10.40
2019-05-15T08:05:18.779Z,10.40
2019-05-15T08:07:48.973Z,10.40
2019-05-15T08:10:18.682Z,10.50
2019-05-15T08:12:49.568Z,10.50
2019-05-15T08:15:18.415Z,10.60
2019-05-15T08:18:03.255Z,10.60
2019-05-15T08:20:19.405Z,10.60
2019-05-15T08:22:48.877Z,10.60
2019-05-15T08:25:30.470Z,10.60
2019-05-15T08:27:53.247Z,10.70
2019-05-15T08:30:23.312Z,10.80
2019-05-15T08:32:51.943Z,10.80
2019-05-15T08:35:20.586Z,10.80
2019-05-15T08:37:50.641Z,10.80
2019-05-15T08:40:21.343Z,10.80
2019-05-15T08:42:57.122Z,10.80
2019-05-15T08:45:20.662Z,10.90
2019-05-15T08:47:49.428Z,11.00
2019-05-15T08:50:18.463Z,11.10
2019-05-15T08:52:48.757Z,11.10
2019-05-15T08:55:19.993Z,11.10
2019-05-15T08:57:55.636Z,11.20
2019-05-15T09:00:18.690Z,11.20
2019-05-15T09:02:48.868Z,11.30
2019-05-15T09:05:19.242Z,11.30
2019-05-15T09:07:48.629Z,11.30
2019-05-15T09:10:18.555Z,11.30
2019-05-15T09:12:47.066Z,11.30
2019-05-15T09:15:18.380Z,11.30
2019-05-15T09:17:48.731Z,11.40
2019-05-15T09:20:19.325Z,11.50
2019-05-15T09:22:49.117Z,11.60
2019-05-15T09:25:19.362Z,11.60
2019-05-15T09:27:48.838Z,11.60
2019-05-15T09:30:18.284Z,11.60
2019-05-15T09:32:48.346Z,11.70
2019-05-15T09:35:19.429Z,11.70
2019-05-15T09:37:48.882Z,11.60
2019-05-15T09:40:18.588Z,11.60
2019-05-15T09:42:48.707Z,11.60
2019-05-15T09:45:18.989Z,11.70
2019-05-15T09:47:48.311Z,11.80
2019-05-15T09:50:19.340Z,11.80
2019-05-15T09:52:50.138Z,11.90
2019-05-15T09:55:18.280Z,12.00
2019-05-15T09:57:48.887Z,12.00
2019-05-15T10:00:18.971Z,12.10
2019-05-15T10:02:48.582Z,12.20
2019-05-15T10:05:19.263Z,12.20
2019-05-15T10:07:47.795Z,12.20
2019-05-15T10:10:19.262Z,12.20
2019-05-15T10:12:49.435Z,12.20
2019-05-15T10:15:18.808Z,12.20
2019-05-15T10:17:50.842Z,12.20
2019-05-15T10:20:20.806Z,12.10
2019-05-15T10:22:54.760Z,12.20
2019-05-15T10:25:21.873Z,12.30
2019-05-15T10:27:51.021Z,12.30
2019-05-15T10:30:19.621Z,12.30
2019-05-15T10:32:48.933Z,12.40
2019-05-15T10:35:28.333Z,12.50
2019-05-15T10:37:49.389Z,12.50
2019-05-15T10:40:20.471Z,12.50
2019-05-15T10:42:49.492Z,12.60
2019-05-15T10:45:19.478Z,12.60
2019-05-15T10:47:49.557Z,12.60
2019-05-15T10:50:19.062Z,12.60
2019-05-15T10:52:48.957Z,12.70
2019-05-15T10:55:18.881Z,12.70
2019-05-15T10:57:50.872Z,12.80
2019-05-15T11:00:43.618Z,12.70
2019-05-15T11:03:12.057Z,12.70
2019-05-15T11:05:45.366Z,12.80
2019-05-15T11:08:10.707Z,12.80
2019-05-15T11:10:41.876Z,12.90
2019-05-15T11:13:09.422Z,12.80
2019-05-15T11:15:42.012Z,12.90
2019-05-15T11:18:09.326Z,12.90
2019-05-15T11:20:40.904Z,12.90
2019-05-15T11:23:09.712Z,13.00
2019-05-15T11:25:38.245Z,13.00
2019-05-15T11:28:08.366Z,13.00
2019-05-15T11:30:39.335Z,13.00
2019-05-15T11:33:09.620Z,13.00
2019-05-15T11:35:40.740Z,13.00
2019-05-15T11:38:10.141Z,13.10
2019-05-15T11:40:38.891Z,13.10
2019-05-15T11:43:08.556Z,13.10
2019-05-15T11:45:38.985Z,13.10
2019-05-15T11:48:09.075Z,13.20
2019-05-15T11:50:40.258Z,13.20
2019-05-15T11:53:09.147Z,13.10
2019-05-15T11:55:38.631Z,13.10
2019-05-15T11:58:09.529Z,13.20
2019-05-15T12:00:38.511Z,13.20
2019-05-15T12:03:08.938Z,13.20
2019-05-15T12:05:38.639Z,13.30
2019-05-15T12:08:09.004Z,13.30
2019-05-15T12:10:38.858Z,13.40
2019-05-15T12:13:09.746Z,13.50
2019-05-15T12:15:38.804Z,13.50
2019-05-15T12:18:08.908Z,13.50
2019-05-15T12:20:38.912Z,13.60
2019-05-15T12:23:09.025Z,13.60
2019-05-15T12:25:39.888Z,13.60
2019-05-15T12:28:10.039Z,13.70
2019-05-15T12:33:09.734Z,13.80
2019-05-15T12:35:39.784Z,13.80
2019-05-15T12:37:59.195Z,13.70
2019-05-15T12:39:24.794Z,13.90
2019-05-15T13:00:40.567Z,14.30
2019-05-15T13:03:09.255Z,14.40
2019-05-15T13:05:39.157Z,14.30
2019-05-15T13:08:08.451Z,14.30
2019-05-15T13:10:38.529Z,14.30
2019-05-15T13:13:09.501Z,14.30
2019-05-15T13:15:41.155Z,14.30
2019-05-15T13:18:14.184Z,14.30
2019-05-15T13:20:39.890Z,14.30
2019-05-15T13:23:09.469Z,14.50
2019-05-15T13:25:41.460Z,14.50
2019-05-15T13:28:11.478Z,14.40
2019-05-15T13:30:41.808Z,14.50
2019-05-15T13:33:10.455Z,14.50
2019-05-15T13:35:40.606Z,14.60
2019-05-15T13:38:12.049Z,14.60
2019-05-15T13:40:42.332Z,14.60
2019-05-15T13:43:10.423Z,14.70
2019-05-15T13:45:40.509Z,14.70
2019-05-15T13:48:09.247Z,14.60
2019-05-15T13:50:40.925Z,14.70
2019-05-15T13:53:11.270Z,14.70
2019-05-15T13:55:42.928Z,14.70
2019-05-15T13:58:21.405Z,14.70
2019-05-15T14:00:51.552Z,14.70
2019-05-15T14:03:20.220Z,14.70
2019-05-15T14:05:51.614Z,14.70
2019-05-15T14:08:22.059Z,14.70
2019-05-15T14:10:58.242Z,14.80
2019-05-15T14:13:29.052Z,14.70
2019-05-15T14:15:58.355Z,14.80
2019-05-15T14:18:28.592Z,14.70
2019-05-15T14:20:58.482Z,14.70
2019-05-15T14:23:29.517Z,14.70
2019-05-15T14:25:58.923Z,14.80
2019-05-15T14:28:28.468Z,14.80
2019-05-15T14:30:58.708Z,14.80
2019-05-15T14:33:29.266Z,14.90
2019-05-15T14:35:57.828Z,14.90
2019-05-15T14:38:28.841Z,14.90
2019-05-15T14:40:58.874Z,14.90
2019-05-15T14:43:29.459Z,14.90
2019-05-15T14:45:58.762Z,14.90
2019-05-15T14:48:28.117Z,14.90
2019-05-15T14:50:58.391Z,14.90
2019-05-15T14:53:29.492Z,14.90
2019-05-15T14:56:00.291Z,14.90
2019-05-15T14:58:30.166Z,15.00
2019-05-15T15:01:03.576Z,15.00
2019-05-15T15:03:33.084Z,14.90
2019-05-15T15:06:01.752Z,14.80
2019-05-15T15:08:32.652Z,14.80
2019-05-15T15:11:00.739Z,14.90
2019-05-15T15:13:29.551Z,14.90
2019-05-15T15:15:59.104Z,14.90
2019-05-15T15:18:28.179Z,14.90
2019-05-15T15:20:57.989Z,14.90
2019-05-15T15:23:29.687Z,15.00
2019-05-15T15:25:58.332Z,14.90
2019-05-15T15:28:30.788Z,14.90
2019-05-15T15:30:58.651Z,14.80
2019-05-15T15:33:29.009Z,14.80
2019-05-15T15:35:58.148Z,14.80
2019-05-15T15:38:37.533Z,14.80
2019-05-15T15:41:00.034Z,14.80
2019-05-15T15:43:28.963Z,14.80
2019-05-15T15:45:58.080Z,14.80
2019-05-15T15:48:28.462Z,14.80
2019-05-15T15:50:58.659Z,14.80
2019-05-15T15:53:28.592Z,14.80
2019-05-15T15:55:57.397Z,14.80
2019-05-15T15:58:28.658Z,14.90
2019-05-15T16:00:56.160Z,14.90
2019-05-15T16:03:25.407Z,14.90
2019-05-15T16:05:53.876Z,14.90
2019-05-15T16:08:22.332Z,14.70
2019-05-15T16:10:50.808Z,14.60
2019-05-15T16:13:20.133Z,14.60
2019-05-15T16:15:48.832Z,14.50
2019-05-15T16:18:18.311Z,14.50
2019-05-15T16:20:54.215Z,14.50
2019-05-15T16:23:33.665Z,14.40
2019-05-15T16:29:32.178Z,14.20
2019-05-15T16:35:03.221Z,14.00
2019-05-15T16:44:24.895Z,14.00
2019-05-15T17:03:18.373Z,14.20
2019-05-15T17:09:20.757Z,14.20
2019-05-15T17:12:23.862Z,14.20
2019-05-15T17:24:19.502Z,14.20
2019-05-15T17:26:48.535Z,14.20
2019-05-15T17:29:18.540Z,14.10
2019-05-15T17:31:48.805Z,14.20
2019-05-15T17:34:17.931Z,14.20
2019-05-15T17:36:48.749Z,14.20
2019-05-15T17:39:18.856Z,14.20
2019-05-15T17:41:48.242Z,14.20
2019-05-15T17:44:17.018Z,14.30
2019-05-15T17:46:48.847Z,14.30
2019-05-15T17:49:15.822Z,14.20
2019-05-15T17:51:44.400Z,14.20
2019-05-15T17:54:12.895Z,14.20
2019-05-15T17:56:41.397Z,14.20
2019-05-15T17:59:09.918Z,14.20
2019-05-15T18:01:38.519Z,14.20
2019-05-15T18:04:08.422Z,14.20
2019-05-15T18:06:39.186Z,14.20
2019-05-15T18:09:08.699Z,14.20
2019-05-15T18:11:38.371Z,14.20
2019-05-15T18:14:08.985Z,14.20
2019-05-15T18:16:38.161Z,14.20
2019-05-15T18:19:08.334Z,14.10
2019-05-15T18:21:38.337Z,14.10
2019-05-15T18:24:09.242Z,14.00
2019-05-15T18:26:38.753Z,14.00
2019-05-15T18:29:39.231Z,14.00
2019-05-15T18:32:08.857Z,14.00
2019-05-15T18:36:58.621Z,14.00
2019-05-15T18:38:08.777Z,14.00
2019-05-15T18:41:05.721Z,13.80
2019-05-15T18:47:44.659Z,13.80
2019-05-15T18:49:34.394Z,13.70
2019-05-15T18:52:40.898Z,13.70
2019-05-15T18:58:05.032Z,13.70
2019-05-15T19:00:36.048Z,13.70
2019-05-15T19:03:18.328Z,13.70
2019-05-15T19:05:33.979Z,13.70
2019-05-15T19:08:02.459Z,13.70
2019-05-15T19:10:32.571Z,13.70
2019-05-15T19:13:01.318Z,13.70
2019-05-15T19:15:30.225Z,13.60
2019-05-15T19:17:58.962Z,13.60
2019-05-15T19:20:28.097Z,13.60
2019-05-15T19:22:58.695Z,13.60
2019-05-15T19:25:28.648Z,13.60
2019-05-15T19:27:57.278Z,13.60
2019-05-15T19:30:28.489Z,13.60
2019-05-15T19:32:58.600Z,13.50
2019-05-15T19:35:28.036Z,13.50
2019-05-15T19:37:58.593Z,13.50
2019-05-15T19:40:28.418Z,13.50
2019-05-15T19:42:59.147Z,13.50
2019-05-15T19:45:28.140Z,13.40
2019-05-15T19:47:58.715Z,13.40
2019-05-15T19:50:28.729Z,13.40
2019-05-15T19:52:59.512Z,13.40
2019-05-15T19:55:28.153Z,13.40
2019-05-15T19:57:58.576Z,13.30
2019-05-15T20:00:28.813Z,13.30
2019-05-15T20:02:58.132Z,13.30
2019-05-15T20:05:29.546Z,13.20
2019-05-15T20:07:58.989Z,13.20
2019-05-15T20:10:29.311Z,13.20
2019-05-15T20:12:59.441Z,13.20
2019-05-15T20:15:28.587Z,13.20
2019-05-15T20:17:57.651Z,13.20
2019-05-15T20:20:42.316Z,13.20
2019-05-15T20:23:38.108Z,13.10
2019-05-15T20:26:12.365Z,13.10
2019-05-15T20:28:43.637Z,13.00
2019-05-15T20:34:20.121Z,13.00
2019-05-15T20:38:59.569Z,13.00
2019-05-15T20:40:49.028Z,12.90
2019-05-15T20:48:52.308Z,12.80
2019-05-15T20:51:20.850Z,12.80
2019-05-15T20:53:49.324Z,12.80
2019-05-15T20:56:17.887Z,12.70
2019-05-15T20:58:47.806Z,12.70
2019-05-15T21:01:18.258Z,12.70
2019-05-15T21:03:50.359Z,12.70
2019-05-15T21:06:17.902Z,12.70
2019-05-15T21:08:48.627Z,12.70
2019-05-15T21:11:18.012Z,12.60
2019-05-15T21:13:48.924Z,12.60
2019-05-15T21:16:18.779Z,12.60
2019-05-15T21:18:47.428Z,12.60
2019-05-15T21:21:15.900Z,12.50
2019-05-15T21:23:49.021Z,12.50
2019-05-15T21:26:18.744Z,12.50
2019-05-15T21:28:48.230Z,12.50
2019-05-15T21:31:21.760Z,12.40
2019-05-15T21:33:48.151Z,12.40
2019-05-15T21:36:19.249Z,12.40
2019-05-15T21:38:48.048Z,12.40
2019-05-15T21:41:18.830Z,12.40
2019-05-15T21:43:48.201Z,12.40
2019-05-15T21:46:18.899Z,12.30
2019-05-15T21:48:48.687Z,12.30
2019-05-15T21:51:19.117Z,12.30
2019-05-15T21:53:47.799Z,12.30
2019-05-15T21:56:18.617Z,12.20
2019-05-15T21:58:48.319Z,12.20
2019-05-15T22:01:19.706Z,12.20
2019-05-15T22:03:48.724Z,12.20
2019-05-15T22:06:18.894Z,12.20
2019-05-15T22:08:47.423Z,12.10
2019-05-15T22:11:18.726Z,12.10
2019-05-15T22:13:47.920Z,12.10
2019-05-15T22:16:18.438Z,12.10
2019-05-15T22:18:47.815Z,12.00
2019-05-15T22:21:18.557Z,12.00
2019-05-15T22:23:46.802Z,12.00
2019-05-15T22:26:18.008Z,12.00
2019-05-15T22:28:48.861Z,12.00
2019-05-15T22:31:17.246Z,12.00
2019-05-15T22:33:47.962Z,11.90
2019-05-15T22:36:18.658Z,11.90
2019-05-15T22:38:48.341Z,11.90
2019-05-15T22:41:19.184Z,11.90
2019-05-15T22:43:50.238Z,11.90
2019-05-15T22:46:18.802Z,11.90
2019-05-15T22:48:48.632Z,11.80
2019-05-15T22:51:18.367Z,11.80
2019-05-15T22:53:48.856Z,11.80
2019-05-15T22:56:18.226Z,11.80
2019-05-15T22:58:48.082Z,11.70
2019-05-15T23:01:18.803Z,11.70
2019-05-15T23:03:47.909Z,11.70
2019-05-15T23:06:19.921Z,11.70
2019-05-15T23:08:49.042Z,11.70
2019-05-15T23:11:18.248Z,11.60
2019-05-15T23:13:48.364Z,11.60
2019-05-15T23:16:18.291Z,11.60
2019-05-15T23:18:48.434Z,11.60
2019-05-15T23:21:18.331Z,11.60
2019-05-15T23:23:48.786Z,11.50
2019-05-15T23:26:17.532Z,11.50
2019-05-15T23:28:47.982Z,11.50
2019-05-15T23:31:16.148Z,11.50
2019-05-15T23:33:44.613Z,11.50
2019-05-15T23:36:14.712Z,11.50
2019-05-15T23:38:43.279Z,11.40
2019-05-15T23:41:11.832Z,11.40
2019-05-15T23:43:40.467Z,11.40
2019-05-15T23:46:08.952Z,11.40
2019-05-15T23:48:39.007Z,11.40
2019-05-15T23:51:08.519Z,11.40
2019-05-15T23:53:37.201Z,11.40
2019-05-15T23:56:05.632Z,11.30
2019-05-15T23:58:34.205Z,11.30
